Time;durP1;ratioP1;P1;durP2;ratioP2;P2;SDS_P1;SDS_P2;PMS_P1;PMS_P2;Temp;Humidity;BMP_temperature;BMP_pressure;BME280_temperature;BME280_humidity;BME280_pressure;Samples;Min_cycle;Max_cycle;Signal;HPM_P1;HPM_P2
2021/01/19 00:00:28;;;;;;;19.35;10.02;;;;;;;2.12;67.81;101196.19;4946723;29;20063;-77
2021/01/19 00:02:56;;;;;;;13.68;8.77;;;;;;;2.23;67.24;101197.78;4945236;29;20035;-77
2021/01/19 00:05:22;;;;;;;14.23;8.70;;;;;;;2.10;67.80;101201.97;4946074;29;20058;-78
2021/01/19 00:07:47;;;;;;;18.17;9.10;;;;;;;2.10;68.43;101194.53;4945653;29;20043;-77
2021/01/19 00:10:16;;;;;;;13.32;8.50;;;;;;;2.25;66.60;101198.31;4946565;29;20031;-78
2021/01/19 00:12:45;;;;;;;16.80;9.00;;;;;;;2.15;66.54;101198.38;4946295;29;20038;-77
2021/01/19 00:15:11;;;;;;;16.42;7.72;;;;;;;2.03;67.05;101194.03;4945619;29;20063;-78
2021/01/19 00:17:36;;;;;;;13.95;7.07;;;;;;;2.04;66.88;101190.19;4944353;29;20386;-77
2021/01/19 00:20:04;;;;;;;12.07;7.25;;;;;;;1.97;67.12;101195.16;4943085;29;20031;-77
2021/01/19 00:22:29;;;;;;;11.20;7.32;;;;;;;1.98;67.06;101196.81;4941679;29;20038;-77
2021/01/19 00:24:58;;;;;;;21.33;8.60;;;;;;;2.03;66.88;101198.72;4941212;29;20027;-74
2021/01/19 00:27:23;;;;;;;12.23;8.00;;;;;;;2.02;67.14;101199.78;4940861;29;20501;-77
2021/01/19 00:29:49;;;;;;;14.63;8.77;;;;;;;1.89;67.06;101184.75;4941753;29;20031;-77
2021/01/19 00:32:14;;;;;;;10.27;6.18;;;;;;;2.02;67.10;101202.53;4940638;29;20027;-77
2021/01/19 00:34:40;;;;;;;9.32;4.82;;;;;;;2.03;67.10;101194.03;4941036;29;20027;-77
2021/01/19 00:37:06;;;;;;;11.30;6.03;;;;;;;1.96;66.89;101204.47;4941190;29;20039;-77
2021/01/19 00:39:31;;;;;;;9.50;5.03;;;;;;;2.03;67.41;101196.78;4942478;29;20038;-77
2021/01/19 00:41:57;;;;;;;7.05;5.15;;;;;;;2.07;66.76;101195.09;4941008;29;20031;-77
2021/01/19 00:44:22;;;;;;;11.68;5.97;;;;;;;2.17;66.69;101204.38;4941536;29;20035;-77
2021/01/19 00:46:52;;;;;;;11.02;5.57;;;;;;;2.04;67.14;101200.34;4944155;29;20055;-77
2021/01/19 00:49:18;;;;;;;15.02;5.53;;;;;;;2.05;67.19;101189.06;4941163;29;20109;-77
2021/01/19 00:51:44;;;;;;;6.13;4.15;;;;;;;2.08;66.38;101191.28;4940806;29;20035;-77
2021/01/19 00:54:10;;;;;;;13.80;5.20;;;;;;;2.07;66.18;101194.28;4940153;29;20467;-76
2021/01/19 00:56:37;;;;;;;15.45;6.55;;;;;;;2.07;66.92;101195.09;4940024;29;20042;-77
2021/01/19 00:59:03;;;;;;;18.30;7.47;;;;;;;1.95;66.65;101197.34;4940729;29;20507;-77
2021/01/19 01:01:31;;;;;;;18.40;6.70;;;;;;;1.95;66.29;101205.59;4940006;29;20031;-77
2021/01/19 01:03:57;;;;;;;17.55;7.68;;;;;;;2.03;66.42;101205.00;4924401;29;20129;-76
2021/01/19 01:06:23;;;;;;;11.15;5.80;;;;;;;1.97;66.60;101208.88;4940489;29;20407;-76
2021/01/19 01:08:48;;;;;;;10.35;6.22;;;;;;;1.95;66.55;101213.81;4940123;29;20049;-77
2021/01/19 01:11:14;;;;;;;16.98;6.18;;;;;;;1.99;66.43;101214.91;4940023;29;20458;-77
2021/01/19 01:13:39;;;;;;;12.73;6.70;;;;;;;2.06;66.50;101229.13;4939944;29;20482;-77
2021/01/19 01:16:11;;;;;;;11.77;6.72;;;;;;;2.07;66.21;101211.56;4939547;29;20045;-76
2021/01/19 01:18:36;;;;;;;10.75;5.82;;;;;;;2.10;66.56;101224.75;4940301;29;20051;-77
2021/01/19 01:21:02;;;;;;;9.82;6.80;;;;;;;2.18;66.18;101233.50;4939842;29;20101;-77
2021/01/19 01:23:28;;;;;;;11.27;6.10;;;;;;;2.18;65.81;101228.81;4940320;29;20047;-77
2021/01/19 01:25:53;;;;;;;8.25;5.20;;;;;;;2.16;66.76;101224.72;4941498;29;20043;-78
2021/01/19 01:28:22;;;;;;;6.35;5.03;;;;;;;2.19;67.38;101235.97;4942641;29;20463;-78
2021/01/19 01:30:50;;;;;;;9.65;5.40;;;;;;;2.19;67.00;101232.41;4944145;29;20050;-76
2021/01/19 01:33:15;;;;;;;11.48;6.03;;;;;;;2.18;66.44;101234.31;4944002;29;20430;-77
2021/01/19 01:35:41;;;;;;;12.90;6.28;;;;;;;2.33;64.74;101241.66;4943710;29;20036;-77
2021/01/19 01:38:06;;;;;;;11.40;6.68;;;;;;;2.34;65.33;101237.81;4943149;29;20501;-77
2021/01/19 01:40:32;;;;;;;11.35;5.97;;;;;;;2.31;66.26;101236.47;4943475;29;20034;-77
2021/01/19 01:42:59;;;;;;;14.10;6.63;;;;;;;2.32;66.85;101242.78;4944245;29;20359;-77
2021/01/19 01:45:27;;;;;;;14.93;5.32;;;;;;;2.30;67.22;101232.06;4943651;29;20458;-76
2021/01/19 01:47:56;;;;;;;9.73;4.50;;;;;;;2.34;66.53;101229.56;4943585;29;20094;-77
2021/01/19 01:50:22;;;;;;;9.40;4.90;;;;;;;2.42;65.54;101217.19;4943481;29;20027;-77
2021/01/19 01:52:50;;;;;;;7.97;4.97;;;;;;;2.57;64.98;101234.41;4960699;29;20046;-77
2021/01/19 01:55:16;;;;;;;8.77;4.25;;;;;;;2.55;65.16;101233.84;4943637;29;20031;-77
2021/01/19 01:57:42;;;;;;;14.70;6.28;;;;;;;2.47;65.87;101228.16;4943372;29;20438;-77
2021/01/19 02:00:10;;;;;;;20.98;8.00;;;;;;;2.45;66.58;101233.94;4943872;29;20031;-76
2021/01/19 02:02:50;;;;;;;13.75;5.47;;;;;;;2.57;66.00;101230.84;4943695;29;20045;-77
2021/01/19 02:05:15;;;;;;;7.97;4.60;;;;;;;2.64;65.64;101242.31;4924725;29;20047;-77
2021/01/19 02:08:03;;;;;;;9.52;4.80;;;;;;;2.65;66.04;101237.66;4924159;29;20063;-77
2021/01/19 02:10:34;;;;;;;9.50;4.85;;;;;;;2.67;65.21;101229.97;4923890;29;20046;-77
2021/01/19 02:13:23;;;;;;;9.40;4.78;;;;;;;2.62;66.26;101245.38;4925074;29;20340;-77
2021/01/19 02:16:09;;;;;;;9.98;4.63;;;;;;;2.56;66.04;101235.50;4924267;29;20031;-77
2021/01/19 02:19:02;;;;;;;8.55;4.75;;;;;;;2.55;65.86;101236.59;4924838;29;20058;-77
2021/01/19 02:21:46;;;;;;;12.27;5.00;;;;;;;2.59;66.07;101250.59;4924232;29;20059;-77
2021/01/19 02:24:26;;;;;;;15.50;5.43;;;;;;;2.60;66.25;101242.06;4924416;29;20027;-77
2021/01/19 02:27:04;;;;;;;12.50;6.97;;;;;;;2.54;66.06;101248.69;4924492;29;20031;-77
2021/01/19 02:29:35;;;;;;;11.85;5.85;;;;;;;2.56;66.53;101245.69;4924941;29;20044;-77
2021/01/19 02:32:13;;;;;;;14.18;7.00;;;;;;;2.57;66.49;101248.13;4924576;29;20031;-77
2021/01/19 02:34:57;;;;;;;15.10;6.18;;;;;;;2.52;66.67;101226.19;4924081;29;20032;-77
2021/01/19 02:37:38;;;;;;;10.95;5.55;;;;;;;2.60;65.92;101227.50;4924756;29;20475;-77
2021/01/19 02:40:06;;;;;;;11.25;5.38;;;;;;;2.60;66.58;101235.75;4922956;29;20032;-77
2021/01/19 02:42:58;;;;;;;9.77;5.20;;;;;;;2.55;66.62;101228.34;4924207;29;20039;-77
2021/01/19 02:45:24;;;;;;;12.10;6.18;;;;;;;2.49;66.17;101234.16;4923383;29;20080;-77
2021/01/19 02:47:50;;;;;;;17.23;7.75;;;;;;;2.46;66.07;101232.00;4923826;29;20032;-77
2021/01/19 02:50:16;;;;;;;12.50;6.32;;;;;;;2.51;66.07;101227.31;4924106;29;20042;-77
2021/01/19 02:52:42;;;;;;;9.90;6.20;;;;;;;2.44;66.09;101226.78;4923432;29;20479;-77
2021/01/19 02:55:10;;;;;;;10.63;5.35;;;;;;;2.50;66.41;101244.84;4923482;29;20087;-77
2021/01/19 02:57:54;;;;;;;8.20;6.03;;;;;;;2.50;65.85;101231.13;4923461;29;20099;-77
2021/01/19 03:00:30;;;;;;;10.25;5.38;;;;;;;2.49;66.46;101226.75;4923701;29;20035;-77
2021/01/19 03:02:58;;;;;;;13.05;6.15;;;;;;;2.53;66.05;101229.75;4923352;29;20501;-77
2021/01/19 03:05:28;;;;;;;11.20;5.93;;;;;;;2.43;66.39;101225.13;4923588;29;20051;-78
2021/01/19 03:07:54;;;;;;;10.10;6.97;;;;;;;2.52;66.54;101222.63;4923583;29;20032;-77
2021/01/19 03:10:20;;;;;;;7.57;5.93;;;;;;;2.52;66.28;101228.94;4922820;29;20028;-77
2021/01/19 03:12:47;;;;;;;8.48;5.70;;;;;;;2.53;65.88;101227.81;4922893;29;20083;-77
2021/01/19 03:15:16;;;;;;;10.02;6.45;;;;;;;2.42;66.95;101229.00;4922576;29;20054;-77
2021/01/19 03:17:43;;;;;;;10.68;6.05;;;;;;;2.44;67.13;101228.69;4922724;29;20094;-77
2021/01/19 03:20:14;;;;;;;6.03;3.85;;;;;;;2.48;65.72;101216.88;4922325;29;20099;-76
2021/01/19 03:22:40;;;;;;;4.07;2.92;;;;;;;2.41;63.22;101221.03;4939391;29;20115;-77
2021/01/19 03:25:08;;;;;;;4.70;3.47;;;;;;;2.40;63.70;101225.72;4940194;29;20038;-77
2021/01/19 03:27:37;;;;;;;6.22;4.90;;;;;;;2.41;66.90;101224.59;4923101;29;20127;-77
2021/01/19 03:30:04;;;;;;;5.95;4.13;;;;;;;2.33;67.48;101215.00;4923360;29;20032;-77
2021/01/19 03:32:30;;;;;;;6.88;3.85;;;;;;;2.33;67.06;101219.69;4919974;29;20043;-77
2021/01/19 03:34:58;;;;;;;5.95;2.95;;;;;;;2.35;63.73;101212.00;4922915;29;20095;-77
2021/01/19 03:37:24;;;;;;;6.43;4.03;;;;;;;2.33;67.44;101226.00;4923192;29;20431;-77
2021/01/19 03:39:52;;;;;;;14.15;6.38;;;;;;;2.38;67.35;101227.91;4922863;29;20035;-77
2021/01/19 03:42:18;;;;;;;44.10;23.27;;;;;;;2.29;67.17;101227.69;4922497;29;20431;-76
2021/01/19 03:44:44;;;;;;;91.07;46.22;;;;;;;2.24;67.55;101221.41;4923191;29;20028;-77
2021/01/19 03:47:10;;;;;;;85.85;47.85;;;;;;;2.18;66.96;101219.75;4922812;29;20028;-76
2021/01/19 03:49:35;;;;;;;82.15;45.92;;;;;;;2.17;67.27;101220.88;4922552;29;20090;-77
2021/01/19 03:52:01;;;;;;;169.70;100.55;;;;;;;2.12;67.65;101231.88;4922961;29;20028;-78
2021/01/19 03:54:26;;;;;;;138.07;88.55;;;;;;;2.08;67.81;101226.13;4922749;29;20531;-77
2021/01/19 03:56:52;;;;;;;85.38;57.70;;;;;;;2.05;68.15;101230.25;4921898;29;20036;-77
2021/01/19 03:59:18;;;;;;;61.42;43.25;;;;;;;2.01;68.34;101228.34;4922476;29;20131;-76
2021/01/19 04:01:47;;;;;;;25.35;19.85;;;;;;;2.02;68.75;101227.22;4921557;29;20464;-77
2021/01/19 04:04:12;;;;;;;33.05;22.30;;;;;;;1.98;68.43;101234.41;4931372;29;20062;-77
2021/01/19 04:06:38;;;;;;;46.88;32.03;;;;;;;2.07;68.82;101222.53;4940996;29;20039;-77
2021/01/19 04:09:04;;;;;;;43.38;24.73;;;;;;;2.04;69.06;101231.34;4940600;29;20035;-77
2021/01/19 04:11:29;;;;;;;29.48;19.15;;;;;;;2.06;69.13;101226.41;4941218;29;20027;-77
2021/01/19 04:13:55;;;;;;;22.83;15.25;;;;;;;2.01;68.71;101234.66;4941031;29;20138;-77
2021/01/19 04:16:21;;;;;;;19.98;12.60;;;;;;;2.04;69.67;101225.06;4940349;29;20034;-77
2021/01/19 04:18:46;;;;;;;23.35;15.75;;;;;;;1.98;68.73;101224.25;4941056;29;20067;-77
2021/01/19 04:21:12;;;;;;;23.30;13.23;;;;;;;1.97;68.92;101228.09;4940933;29;20122;-77
2021/01/19 04:23:37;;;;;;;19.23;13.73;;;;;;;1.93;69.36;101221.53;4941640;29;20442;-77
2021/01/19 04:26:03;;;;;;;25.33;16.88;;;;;;;1.94;70.22;101225.09;4941179;29;20065;-77
2021/01/19 04:28:28;;;;;;;32.80;20.38;;;;;;;1.91;69.83;101229.19;4940739;29;20367;-77
2021/01/19 04:30:54;;;;;;;26.70;19.00;;;;;;;1.98;69.61;101239.91;4940546;29;20035;-77
2021/01/19 04:33:20;;;;;;;20.13;13.05;;;;;;;1.90;69.52;101233.03;4940975;29;20039;-76
2021/01/19 04:35:48;;;;;;;13.05;9.35;;;;;;;1.97;68.90;101232.75;4940638;29;20045;-77
2021/01/19 04:38:14;;;;;;;11.35;8.40;;;;;;;1.99;69.20;101239.59;4940910;29;20032;-77
2021/01/19 04:40:40;;;;;;;10.65;5.85;;;;;;;1.99;67.96;101236.88;4940770;29;20038;-77
2021/01/19 04:43:06;;;;;;;10.90;8.85;;;;;;;1.96;69.19;101248.38;4940262;29;20031;-77
2021/01/19 04:45:33;;;;;;;20.10;13.80;;;;;;;1.92;70.04;101246.47;4940209;29;20035;-77
2021/01/19 04:48:02;;;;;;;11.30;7.75;;;;;;;2.01;68.89;101250.31;4940421;29;20474;-77
2021/01/19 04:50:30;;;;;;;13.73;6.63;;;;;;;2.02;69.09;101247.25;4940174;29;20106;-77
2021/01/19 04:52:59;;;;;;;18.67;11.80;;;;;;;2.01;69.77;101261.28;4940080;29;20097;-77
2021/01/19 04:55:28;;;;;;;19.17;13.77;;;;;;;1.93;69.67;101259.94;4957136;29;20031;-77
2021/01/19 04:58:01;;;;;;;8.55;6.80;;;;;;;1.99;68.86;101266.25;4940509;29;20065;-77
2021/01/19 05:00:37;;;;;;;8.25;5.72;;;;;;;2.02;68.71;101261.00;4940705;29;20039;-77
2021/01/19 05:03:02;;;;;;;14.38;5.85;;;;;;;1.97;69.90;101260.19;4939857;28;20380;-77
2021/01/19 05:05:37;;;;;;;8.10;4.38;;;;;;;2.03;69.54;101265.41;4940045;29;20035;-77
2021/01/19 05:08:15;;;;;;;5.65;3.90;;;;;;;1.93;69.31;101243.47;4939883;29;20049;-77
2021/01/19 05:10:41;;;;;;;5.45;3.78;;;;;;;2.12;68.76;101262.88;4939799;29;20478;-77
2021/01/19 05:13:12;;;;;;;4.00;3.03;;;;;;;2.06;68.79;101277.75;4939961;29;20126;-77
2021/01/19 05:15:48;;;;;;;4.90;3.35;;;;;;;1.93;69.78;101275.59;4940108;29;20154;-77
2021/01/19 05:18:20;;;;;;;5.20;3.95;;;;;;;1.91;71.14;101273.09;4940703;29;20039;-77
2021/01/19 05:20:50;;;;;;;4.43;3.75;;;;;;;1.83;71.21;101273.69;4940365;29;20031;-77
2021/01/19 05:23:21;;;;;;;5.35;3.22;;;;;;;1.88;71.41;101279.16;4940564;29;20043;-76
2021/01/19 05:25:58;;;;;;;9.02;3.50;;;;;;;1.91;71.46;101270.38;4924938;29;20038;-77
2021/01/19 05:28:42;;;;;;;4.10;2.90;;;;;;;1.87;71.53;101268.47;4940233;29;20058;-77
2021/01/19 05:31:14;;;;;;;;;;;;;;;1.87;71.67;101276.72;4940892;29;20043;-78
2021/01/19 05:33:41;;;;;;;5.10;3.03;;;;;;;1.84;71.71;101280.81;4940835;29;20454;-78
2021/01/19 05:36:08;;;;;;;1.98;1.85;;;;;;;1.79;71.12;101280.81;4940451;29;20047;-77
2021/01/19 05:38:54;;;;;;;3.40;2.60;;;;;;;1.75;70.22;101285.22;4924182;29;20363;-77
2021/01/19 05:41:30;;;;;;;7.43;4.35;;;;;;;1.77;71.65;101289.34;4956245;29;20031;-77
2021/01/19 05:44:07;;;;;;;5.80;4.30;;;;;;;1.79;72.14;101286.31;4939056;29;20035;-77
2021/01/19 05:46:33;;;;;;;8.98;4.43;;;;;;;1.70;72.10;101279.75;4939418;29;20035;-77
2021/01/19 05:49:00;;;;;;;6.03;4.47;;;;;;;1.68;72.80;101282.78;4939270;29;20138;-77
2021/01/19 05:51:27;;;;;;;6.35;4.63;;;;;;;1.66;72.63;101281.41;4938815;29;20058;-77
2021/01/19 05:53:58;;;;;;;5.00;3.35;;;;;;;1.61;72.32;101278.69;4923986;29;20085;-77
2021/01/19 05:56:26;;;;;;;4.93;4.38;;;;;;;1.63;72.66;101287.44;4939213;29;20027;-77
2021/01/19 05:58:51;;;;;;;13.45;6.32;;;;;;;1.58;73.79;101286.34;4940084;29;20035;-77
2021/01/19 06:01:33;;;;;;;9.73;7.43;;;;;;;1.62;73.63;101285.81;4939618;29;20498;-77
2021/01/19 06:04:01;;;;;;;11.77;8.35;;;;;;;1.61;73.68;101284.16;4939534;29;20058;-77
2021/01/19 06:06:30;;;;;;;14.38;9.05;;;;;;;1.55;74.31;101286.91;4939339;29;20049;-77
2021/01/19 06:09:05;;;;;;;16.20;10.77;;;;;;;1.54;73.69;101274.25;4939727;29;20039;-77
2021/01/19 06:11:34;;;;;;;14.88;9.52;;;;;;;1.62;73.39;101283.06;4939144;29;20035;-77
2021/01/19 06:13:59;;;;;;;10.80;7.90;;;;;;;1.58;72.90;101272.63;4939527;28;20070;-77
2021/01/19 06:16:28;;;;;;;14.23;8.30;;;;;;;1.65;72.82;101282.50;4943476;29;20063;-75
2021/01/19 06:18:53;;;;;;;10.82;6.60;;;;;;;1.62;73.15;101280.31;4943645;29;20032;-77
2021/01/19 06:21:30;;;;;;;7.07;6.03;;;;;;;1.58;72.85;101280.84;4942407;29;20033;-77
2021/01/19 06:23:56;;;;;;;12.20;8.60;;;;;;;1.65;73.62;101279.75;4942717;29;20027;-77
2021/01/19 06:26:25;;;;;;;15.73;10.35;;;;;;;1.68;73.69;101285.50;4942579;29;20032;-77
2021/01/19 06:28:50;;;;;;;11.40;8.20;;;;;;;1.44;73.46;101238.66;4942376;29;20471;-77
2021/01/19 06:31:20;;;;;;;8.63;6.47;;;;;;;1.64;73.41;101273.44;4941593;29;20035;-77
2021/01/19 06:33:48;;;;;;;18.38;9.38;;;;;;;1.99;73.19;101280.78;4942237;29;20039;-77
2021/01/19 06:36:16;;;;;;;19.48;13.63;;;;;;;2.45;71.26;101285.28;4941441;29;20031;-77
2021/01/19 06:38:49;;;;;;;33.17;18.77;;;;;;;2.83;69.34;101294.72;4941409;29;20032;-77
2021/01/19 06:41:19;;;;;;;51.10;29.55;;;;;;;2.90;68.41;101281.47;4941617;29;20066;-76
2021/01/19 06:43:54;;;;;;;49.33;31.67;;;;;;;3.21;67.48;101289.50;4941913;29;20034;-77
2021/01/19 06:46:21;;;;;;;32.35;20.73;;;;;;;3.70;65.11;101285.78;4941400;29;20027;-77
2021/01/19 06:48:47;;;;;;;22.77;14.30;;;;;;;4.19;63.43;101286.34;4941627;29;20031;-77
2021/01/19 06:51:16;;;;;;;17.65;11.90;;;;;;;4.73;61.45;101290.63;4942455;29;20379;-77
2021/01/19 06:54:11;;;;;;;16.27;11.88;;;;;;;5.35;59.80;101284.22;4943037;29;20027;-76
2021/01/19 06:56:54;;;;;;;15.60;11.45;;;;;;;5.89;57.31;101289.06;4939786;29;20058;-77
2021/01/19 06:59:41;;;;;;;14.27;9.18;;;;;;;6.49;55.66;101289.00;4942081;29;20038;-78
2021/01/19 07:02:17;;;;;;;12.70;7.88;;;;;;;7.06;54.69;101296.91;4926166;29;20062;-76
2021/01/19 07:04:54;;;;;;;12.68;8.50;;;;;;;7.63;53.14;101285.28;4940527;29;20090;-73
2021/01/19 07:07:42;;;;;;;12.35;9.70;;;;;;;8.18;50.39;101282.94;4940653;29;20039;-74
2021/01/19 07:10:35;;;;;;;15.18;10.90;;;;;;;8.53;49.41;101288.66;4940679;29;20031;-74
2021/01/19 07:13:07;;;;;;;18.63;12.43;;;;;;;8.77;49.70;101293.75;4925900;29;20138;-75
2021/01/19 07:15:51;;;;;;;59.30;32.42;;;;;;;8.96;44.15;101291.50;4941341;29;20054;-75
2021/01/19 07:18:51;;;;;;;71.25;40.83;;;;;;;9.37;44.15;101296.56;4941650;29;20050;-75
2021/01/19 07:21:20;;;;;;;32.47;21.08;;;;;;;9.80;45.03;101303.22;4940893;29;20066;-73
2021/01/19 07:23:46;;;;;;;28.42;17.25;;;;;;;10.24;45.32;101299.19;4940991;29;20486;-75
2021/01/19 07:26:23;;;;;;;23.83;16.92;;;;;;;10.73;44.68;101296.81;4940399;29;20034;-75
2021/01/19 07:28:51;;;;;;;24.42;16.38;;;;;;;11.12;44.14;101297.53;4941464;29;20034;-75
2021/01/19 07:31:19;;;;;;;26.73;17.70;;;;;;;11.48;41.95;101310.84;4940820;29;20042;-75
2021/01/19 07:33:52;;;;;;;29.08;17.90;;;;;;;11.58;42.97;101309.59;4940481;29;20031;-75
2021/01/19 07:36:24;;;;;;;26.27;17.45;;;;;;;11.90;41.55;101308.81;4940626;29;20343;-74
2021/01/19 07:38:50;;;;;;;24.10;19.38;;;;;;;12.40;40.17;101309.69;4941128;29;20058;-74
2021/01/19 07:41:32;;;;;;;31.50;21.35;;;;;;;12.49;38.00;101314.00;4941093;29;20054;-75
2021/01/19 07:43:57;;;;;;;44.85;34.80;;;;;;;12.39;37.97;101311.69;4940216;29;20027;-75
2021/01/19 07:46:27;;;;;;;15.25;11.43;;;;;;;12.15;36.81;101311.66;4940691;29;20393;-75
2021/01/19 07:49:09;;;;;;;17.05;12.60;;;;;;;12.90;35.97;101314.13;4958003;29;20082;-75
2021/01/19 07:51:43;;;;;;;18.17;13.95;;;;;;;12.94;35.74;101324.22;4940431;29;20114;-74
2021/01/19 07:54:21;;;;;;;15.30;11.68;;;;;;;13.20;35.46;101328.59;4925165;29;20042;-75
2021/01/19 07:56:50;;;;;;;19.77;12.60;;;;;;;13.35;34.87;101325.91;4940695;29;20110;-75
2021/01/19 07:59:18;;;;;;;18.55;13.45;;;;;;;13.64;34.89;101337.94;4940971;29;20031;-75
2021/01/19 08:02:02;;;;;;;14.57;12.63;;;;;;;13.98;34.11;101339.28;4941506;29;20031;-75
2021/01/19 08:04:31;;;;;;;15.43;11.48;;;;;;;14.10;33.35;101344.81;4928425;29;20206;-75
2021/01/19 08:07:21;;;;;;;14.35;11.02;;;;;;;14.19;33.53;101346.63;4921260;29;20032;-75
2021/01/19 08:09:50;;;;;;;12.07;8.65;;;;;;;14.31;33.61;101352.16;4920881;29;20032;-76
2021/01/19 08:12:16;;;;;;;11.82;9.27;;;;;;;14.48;33.01;101346.22;4921120;29;20035;-75
2021/01/19 08:14:44;;;;;;;15.80;10.25;;;;;;;14.70;31.98;101349.56;4920746;29;20036;-75
2021/01/19 08:17:11;;;;;;;13.25;10.48;;;;;;;14.67;33.00;101351.91;4920582;29;20106;-75
2021/01/19 08:19:39;;;;;;;12.88;10.13;;;;;;;14.63;33.68;101361.41;4920702;29;20040;-75
2021/01/19 08:22:09;;;;;;;13.20;9.50;;;;;;;14.60;33.83;101362.16;4920399;29;20036;-75
2021/01/19 08:24:40;;;;;;;13.30;8.77;;;;;;;14.61;33.43;101364.56;4904971;29;20384;-75
2021/01/19 08:27:06;;;;;;;15.80;8.65;;;;;;;14.74;32.81;101358.88;4921130;29;20036;-76
2021/01/19 08:29:32;;;;;;;10.80;8.40;;;;;;;14.80;32.84;101366.63;4920264;29;20372;-76
2021/01/19 08:32:02;;;;;;;10.43;7.28;;;;;;;14.76;32.37;101370.53;4920241;29;20038;-76
2021/01/19 08:34:31;;;;;;;8.30;7.28;;;;;;;15.01;32.35;101371.13;4920637;29;20126;-74
2021/01/19 08:36:59;;;;;;;9.35;7.70;;;;;;;14.92;32.39;101382.53;4921323;29;20120;-75
2021/01/19 08:39:25;;;;;;;7.28;5.10;;;;;;;14.50;31.62;101374.69;4919735;29;20039;-75
2021/01/19 08:41:54;;;;;;;7.15;5.85;;;;;;;14.35;32.85;101378.25;4920866;29;20399;-77
2021/01/19 08:44:21;;;;;;;11.27;7.82;;;;;;;14.78;32.81;101387.78;4921013;29;20127;-76
2021/01/19 08:46:48;;;;;;;9.88;6.95;;;;;;;15.09;31.92;101384.16;4920154;29;20031;-75
2021/01/19 08:49:15;;;;;;;9.57;6.88;;;;;;;15.25;31.71;101387.72;4919242;29;20130;-75
2021/01/19 08:51:53;;;;;;;8.40;6.68;;;;;;;15.27;30.68;101382.56;4920388;29;20182;-75
2021/01/19 08:54:24;;;;;;;11.48;9.70;;;;;;;15.11;30.92;101388.19;4919781;29;20037;-76
2021/01/19 08:56:53;;;;;;;11.73;8.38;;;;;;;14.53;32.21;101390.75;4919567;29;20055;-76
2021/01/19 08:59:19;;;;;;;9.13;8.02;;;;;;;15.02;31.06;101397.97;4919530;29;20039;-75
2021/01/19 09:01:51;;;;;;;8.82;7.88;;;;;;;15.08;31.54;101393.72;4919573;29;20032;-76
2021/01/19 09:04:28;;;;;;;8.77;6.75;;;;;;;14.82;32.01;101395.13;4919463;29;20070;-76
2021/01/19 09:07:07;;;;;;;9.60;7.95;;;;;;;13.28;34.23;101400.34;4937251;29;20031;-76
2021/01/19 09:09:36;;;;;;;8.48;7.05;;;;;;;13.40;34.49;101394.75;4920514;29;20028;-76
2021/01/19 09:12:16;;;;;;;14.15;11.65;;;;;;;13.41;35.12;101395.56;4920678;29;20494;-76
2021/01/19 09:14:42;;;;;;;9.32;5.80;;;;;;;13.80;33.73;101403.13;4920203;29;20087;-76
2021/01/19 09:17:09;;;;;;;10.55;6.32;;;;;;;13.95;34.13;101407.13;4920475;29;20043;-76
2021/01/19 09:19:35;;;;;;;18.40;12.73;;;;;;;13.33;34.81;101397.31;4919547;29;20479;-76
2021/01/19 09:22:01;;;;;;;23.95;16.13;;;;;;;14.20;33.97;101409.84;4920326;29;20024;-76
2021/01/19 09:24:35;;;;;;;17.58;13.77;;;;;;;14.38;34.36;101409.16;4919753;29;20032;-78
2021/01/19 09:27:04;;;;;;;6.93;6.10;;;;;;;14.47;33.78;101409.00;4919438;29;20030;-77
2021/01/19 09:29:31;;;;;;;11.48;9.02;;;;;;;14.40;34.20;101408.78;4919234;29;20439;-76
2021/01/19 09:32:00;;;;;;;9.27;7.97;;;;;;;14.64;34.07;101411.44;4919198;29;20051;-76
2021/01/19 09:34:30;;;;;;;6.75;6.05;;;;;;;14.80;33.56;101405.84;4919934;29;20138;-76
2021/01/19 09:36:57;;;;;;;12.60;10.43;;;;;;;14.28;34.22;101400.47;4936335;29;20058;-73
2021/01/19 09:39:32;;;;;;;12.25;10.27;;;;;;;13.95;35.39;101401.53;4919170;29;20028;-74
2021/01/19 09:41:59;;;;;;;13.48;10.50;;;;;;;13.50;36.35;101410.22;4919795;29;20043;-74
2021/01/19 09:44:30;;;;;;;9.57;8.27;;;;;;;12.98;37.55;101406.16;4920452;29;20028;-74
2021/01/19 09:47:05;;;;;;;9.00;7.90;;;;;;;13.14;37.49;101409.06;4919615;29;20103;-74
2021/01/19 09:49:33;;;;;;;7.43;6.07;;;;;;;13.08;36.92;101410.47;4921055;29;20542;-75
2021/01/19 09:52:13;;;;;;;11.13;7.18;;;;;;;13.16;37.86;101405.94;4924291;29;20039;-75
2021/01/19 09:54:39;;;;;;;9.20;7.20;;;;;;;13.63;36.92;101392.22;4923461;29;20036;-75
2021/01/19 09:57:09;;;;;;;12.25;8.07;;;;;;;13.24;37.13;101405.84;4908301;29;20067;-75
2021/01/19 09:59:39;;;;;;;14.60;8.23;;;;;;;13.67;37.24;101406.31;4923974;29;20102;-75
2021/01/19 10:02:05;;;;;;;9.20;6.57;;;;;;;13.61;37.26;101400.16;4924765;29;20054;-75
2021/01/19 10:04:31;;;;;;;7.90;6.07;;;;;;;13.90;36.57;101396.19;4935824;29;20494;-75
2021/01/19 10:07:05;;;;;;;10.90;7.40;;;;;;;13.63;38.11;101392.22;4927336;29;20035;-75
2021/01/19 10:09:31;;;;;;;9.85;7.10;;;;;;;13.89;37.41;101389.00;4943393;29;20066;-75
2021/01/19 10:12:01;;;;;;;14.50;11.48;;;;;;;13.97;37.42;101393.63;4943899;29;20378;-75
2021/01/19 10:14:38;;;;;;;10.20;5.72;;;;;;;13.76;37.12;101384.63;4943993;29;20493;-75
2021/01/19 10:17:06;;;;;;;8.68;6.78;;;;;;;13.56;38.97;101381.66;4943593;29;20502;-75
2021/01/19 10:19:36;;;;;;;8.98;7.13;;;;;;;13.84;38.77;101383.66;4943235;29;20031;-76
2021/01/19 10:22:10;;;;;;;7.28;5.95;;;;;;;14.08;38.86;101386.34;4943578;29;20066;-76
2021/01/19 10:24:56;;;;;;;6.32;5.45;;;;;;;14.78;37.53;101379.38;4943556;29;20030;-76
2021/01/19 10:27:28;;;;;;;12.20;8.48;;;;;;;15.01;36.90;101366.31;4942948;29;20042;-76
2021/01/19 10:29:54;;;;;;;12.10;8.15;;;;;;;15.13;36.43;101362.63;4942235;29;20026;-76
2021/01/19 10:32:24;;;;;;;12.40;8.82;;;;;;;15.12;36.79;101367.38;4941707;29;20035;-76
2021/01/19 10:34:51;;;;;;;11.55;8.02;;;;;;;15.20;36.73;101366.38;4942727;29;20442;-76
2021/01/19 10:37:20;;;;;;;11.38;9.40;;;;;;;14.84;37.20;101349.91;4942086;29;20035;-75
2021/01/19 10:39:56;;;;;;;8.90;6.50;;;;;;;14.89;37.16;101352.44;4942959;29;20035;-78
2021/01/19 10:42:31;;;;;;;10.50;7.80;;;;;;;14.93;37.29;101356.13;4959378;29;20506;-76
2021/01/19 10:44:58;;;;;;;10.73;8.73;;;;;;;15.04;36.96;101351.59;4942177;29;20049;-76
2021/01/19 10:47:28;;;;;;;11.90;8.13;;;;;;;14.49;37.66;101344.22;4942599;29;20443;-76
2021/01/19 10:49:57;;;;;;;8.15;6.55;;;;;;;15.31;35.70;101338.59;4941974;29;20117;-76
2021/01/19 10:52:25;;;;;;;15.95;13.13;;;;;;;14.71;38.17;101342.81;4942488;29;20027;-76
2021/01/19 10:54:57;;;;;;;9.63;8.27;;;;;;;14.57;39.54;101329.25;4943810;29;20035;-75
2021/01/19 10:57:25;;;;;;;12.00;7.78;;;;;;;14.38;39.68;101327.97;4943139;29;20031;-76
2021/01/19 10:59:51;;;;;;;11.93;8.45;;;;;;;14.31;39.23;101322.16;4942501;29;20035;-75
2021/01/19 11:02:19;;;;;;;8.02;6.25;;;;;;;14.34;39.79;101320.66;4943079;29;20378;-75
2021/01/19 11:04:48;;;;;;;9.77;6.97;;;;;;;14.46;38.91;101316.94;4942013;29;20519;-75
2021/01/19 11:07:13;;;;;;;5.22;4.60;;;;;;;14.60;39.44;101312.53;4942284;29;20106;-76
2021/01/19 11:09:42;;;;;;;5.35;4.25;;;;;;;15.00;39.40;101303.06;4942042;29;20513;-75
2021/01/19 11:12:10;;;;;;;6.60;4.80;;;;;;;15.48;38.61;101300.06;4942346;29;20035;-75
2021/01/19 11:14:39;;;;;;;6.15;4.55;;;;;;;15.28;38.77;101302.06;4941685;29;20508;-75
2021/01/19 11:17:04;;;;;;;5.22;4.60;;;;;;;15.26;39.01;101299.63;4941499;29;20031;-75
2021/01/19 11:19:30;;;;;;;4.13;3.70;;;;;;;15.03;39.65;101296.72;4941225;29;20034;-76
2021/01/19 11:21:56;;;;;;;9.85;8.07;;;;;;;15.47;38.81;101299.25;4940926;29;20504;-75
2021/01/19 11:24:21;;;;;;;7.50;4.38;;;;;;;15.54;39.07;101296.59;4941649;29;20027;-76
2021/01/19 11:26:49;;;;;;;9.57;4.00;;;;;;;15.59;39.35;101289.88;4941070;29;20055;-75
2021/01/19 11:29:15;;;;;;;2.83;2.55;;;;;;;15.83;37.57;101291.59;4941961;29;20566;-74
2021/01/19 11:31:41;;;;;;;2.42;2.22;;;;;;;15.65;39.13;101291.22;4940095;29;20110;-76
2021/01/19 11:34:09;;;;;;;3.50;2.47;;;;;;;15.56;37.24;101291.44;4941559;29;20447;-76
2021/01/19 11:36:39;;;;;;;2.28;2.08;;;;;;;15.87;35.66;101284.03;4942236;29;20031;-75